Time;durP1;ratioP1;P1;durP2;ratioP2;P2;SDS_P1;SDS_P2;PMS_P1;PMS_P2;Temp;Humidity;BMP_temperature;BMP_pressure;BME280_temperature;BME280_humidity;BME280_pressure;Samples;Min_cycle;Max_cycle;Signal;HPM_P1;HPM_P2
2022/10/24 00:01:15;;;;;;;3.33;2.50;;;21.80;73.30;;;;;;4996830;27;88896;-87
2022/10/24 00:03:41;;;;;;;3.42;2.10;;;21.80;73.20;;;;;;4994582;28;90350;-87
2022/10/24 00:06:09;;;;;;;2.65;1.98;;;21.70;73.40;;;;;;5028296;28;94792;-87
2022/10/24 00:08:36;;;;;;;4.53;2.50;;;21.80;73.20;;;;;;4997186;28;87433;-87
2022/10/24 00:11:06;;;;;;;3.75;2.20;;;21.80;73.20;;;;;;4996261;27;88598;-87
2022/10/24 00:13:33;;;;;;;3.38;2.15;;;21.70;73.00;;;;;;4997099;27;88542;-87
2022/10/24 00:16:00;;;;;;;4.13;1.92;;;21.70;73.10;;;;;;5028283;27;87008;-88
2022/10/24 00:18:25;;;;;;;2.20;1.98;;;21.70;73.30;;;;;;4994349;28;90419;-87
2022/10/24 00:20:51;;;;;;;2.63;2.22;;;21.70;73.30;;;;;;5028204;28;91386;-87
2022/10/24 00:23:16;;;;;;;3.30;2.13;;;21.70;73.20;;;;;;4996359;27;88887;-87
2022/10/24 00:25:42;;;;;;;4.10;2.10;;;21.70;73.30;;;;;;4996235;27;87016;-87
2022/10/24 00:28:08;;;;;;;3.10;1.92;;;21.70;73.30;;;;;;4996308;27;87228;-87
2022/10/24 00:30:33;;;;;;;3.03;1.88;;;21.70;73.30;;;;;;4995118;27;88577;-87
2022/10/24 00:32:59;;;;;;;2.10;1.90;;;21.70;73.30;;;;;;4995845;27;88300;-87
2022/10/24 00:35:25;;;;;;;3.47;2.10;;;21.70;73.30;;;;;;4997000;28;87333;-87
2022/10/24 00:37:50;;;;;;;2.67;1.98;;;21.60;73.30;;;;;;4996607;27;87338;-87
2022/10/24 00:40:18;;;;;;;2.95;2.20;;;21.70;73.40;;;;;;4995677;27;88873;-87
2022/10/24 00:42:44;;;;;;;2.85;2.03;;;21.60;73.40;;;;;;5012055;28;91901;-87
2022/10/24 00:45:40;;;;;;;4.03;1.90;;;21.60;73.30;;;;;;5013114;28;88283;-87
2022/10/24 00:48:37;;;;;;;3.40;1.90;;;21.60;73.30;;;;;;5013486;28;87554;-87
2022/10/24 00:51:20;;;;;;;2.78;2.47;;;21.60;73.30;;;;;;4962751;28;88206;-87
2022/10/24 00:53:49;;;;;;;4.57;2.22;;;21.60;73.50;;;;;;4964553;28;88048;-87
2022/10/24 00:56:17;;;;;;;3.38;2.25;;;21.60;73.30;;;;;;4962801;28;87149;-87
2022/10/24 00:58:44;;;;;;;3.33;2.25;;;21.70;73.40;;;;;;4964754;28;87597;-87
2022/10/24 01:01:11;;;;;;;2.28;1.95;;;21.60;73.30;;;;;;4963653;28;88729;-87
2022/10/24 01:03:36;;;;;;;3.40;2.50;;;21.60;73.30;;;;;;4964150;28;88561;-87
2022/10/24 01:06:13;;;;;;;3.15;1.85;;;21.70;73.30;;;;;;4964176;28;86972;-87
2022/10/24 01:08:46;;;;;;;1.98;1.85;;;21.60;73.40;;;;;;4965590;28;87411;-87
2022/10/24 01:11:26;;;;;;;2.95;2.10;;;21.60;73.40;;;;;;4961938;28;90928;-87
2022/10/24 01:13:58;;;;;;;2.95;2.00;;;21.60;73.30;;;;;;4946910;28;91651;-87
2022/10/24 01:16:30;;;;;;;2.45;1.90;;;21.60;73.40;;;;;;4979885;28;87854;-87
2022/10/24 01:19:37;;;;;;;3.20;2.20;;;21.60;73.30;;;;;;4965132;28;87373;-88
2022/10/24 01:22:37;;;;;;;2.45;2.03;;;21.60;73.20;;;;;;4962900;28;88885;-87
2022/10/24 01:25:14;;;;;;;3.42;2.00;;;21.60;73.30;;;;;;4928516;28;88026;-87
2022/10/24 01:27:58;;;;;;;3.90;2.15;;;21.60;73.30;;;;;;4939618;28;87247;-87
2022/10/24 01:30:27;;;;;;;3.08;2.10;;;21.60;73.40;;;;;;4963396;28;87375;-87
2022/10/24 01:33:14;;;;;;;3.38;2.00;;;21.60;73.40;;;;;;4963839;28;88206;-87
2022/10/24 01:35:48;;;;;;;3.63;2.08;;;21.60;73.30;;;;;;4961920;28;92381;-87
2022/10/24 01:38:25;;;;;;;4.00;2.42;;;21.50;73.30;;;;;;4962440;28;88565;-87
2022/10/24 01:40:57;;;;;;;2.63;1.90;;;21.60;73.30;;;;;;4962946;28;88369;-87
2022/10/24 01:43:34;;;;;;;2.25;2.03;;;21.60;73.30;;;;;;4961722;28;89106;-87
2022/10/24 01:46:23;;;;;;;2.60;2.13;;;21.60;73.20;;;;;;4963146;28;89300;-87
2022/10/24 01:48:56;;;;;;;2.70;1.80;;;21.60;73.30;;;;;;4963133;28;87502;-87
2022/10/24 01:51:25;;;;;;;3.95;1.90;;;21.50;72.80;;;;;;4962807;28;87040;-87
2022/10/24 01:53:52;;;;;;;3.45;2.17;;;21.50;73.00;;;;;;4963018;28;88192;-87
2022/10/24 01:56:18;;;;;;;3.95;2.15;;;21.50;73.00;;;;;;4963715;28;90624;-87
2022/10/24 01:58:44;;;;;;;2.30;2.05;;;21.50;73.00;;;;;;4961809;28;87302;-87
2022/10/24 02:01:15;;;;;;;2.90;1.95;;;21.50;73.10;;;;;;4955650;28;88042;-87
2022/10/24 02:03:54;;;;;;;2.05;1.85;;;21.50;73.10;;;;;;4994133;27;89500;-87
2022/10/24 02:06:29;;;;;;;2.38;1.75;;;21.60;73.10;;;;;;4994488;27;90299;-87
2022/10/24 02:09:00;;;;;;;2.50;1.73;;;21.50;73.00;;;;;;4995269;28;87614;-88
2022/10/24 02:11:26;;;;;;;3.30;2.08;;;21.50;73.10;;;;;;4993652;28;92233;-87
2022/10/24 02:13:58;;;;;;;3.60;2.20;;;21.50;73.00;;;;;;4994859;27;88583;-87
2022/10/24 02:16:24;;;;;;;1.63;1.42;;;21.50;73.00;;;;;;4994592;27;88486;-87
2022/10/24 02:18:53;;;;;;;2.67;2.00;;;21.50;73.10;;;;;;4994612;27;86877;-87
2022/10/24 02:21:32;;;;;;;2.15;1.90;;;21.50;73.00;;;;;;5026486;27;89313;-87
2022/10/24 02:24:15;;;;;;;3.20;2.35;;;21.50;73.10;;;;;;4995230;27;88719;-87
2022/10/24 02:26:52;;;;;;;1.90;1.70;;;21.50;73.20;;;;;;4995360;28;87548;-87
2022/10/24 02:29:40;;;;;;;2.92;2.03;;;21.50;72.90;;;;;;4993699;27;87853;-87
2022/10/24 02:32:18;;;;;;;2.53;1.95;;;21.50;72.90;;;;;;4994487;27;87406;-87
2022/10/24 02:34:47;;;;;;;1.73;1.63;;;21.50;73.00;;;;;;4994491;27;88663;-87
2022/10/24 02:37:16;;;;;;;2.22;1.85;;;21.50;72.90;;;;;;4993660;27;88269;-87
2022/10/24 02:39:46;;;;;;;4.00;1.90;;;21.50;73.10;;;;;;4994127;27;86977;-87
2022/10/24 02:42:13;;;;;;;2.80;1.95;;;21.50;73.00;;;;;;4993726;27;87526;-86
2022/10/24 02:44:40;;;;;;;2.55;1.80;;;21.50;73.10;;;;;;4994799;28;89036;-87
2022/10/24 02:47:08;;;;;;;2.90;1.92;;;21.50;72.90;;;;;;5001135;28;89960;-87
2022/10/24 02:49:34;;;;;;;3.30;2.00;;;21.40;73.10;;;;;;4997810;27;87089;-87
2022/10/24 02:52:01;;;;;;;2.75;1.90;;;21.40;72.90;;;;;;4997747;27;87973;-87
2022/10/24 02:54:26;;;;;;;2.38;1.73;;;21.50;73.00;;;;;;4996450;27;88827;-87
2022/10/24 02:56:57;;;;;;;2.83;1.75;;;21.40;72.90;;;;;;4998824;28;88667;-87
2022/10/24 02:59:23;;;;;;;2.53;1.67;;;21.40;72.80;;;;;;4996642;28;88568;-87
2022/10/24 03:01:48;;;;;;;2.00;1.85;;;21.40;72.80;;;;;;5011834;27;88626;-87
2022/10/24 03:04:14;;;;;;;2.45;1.83;;;21.40;72.80;;;;;;4997797;27;87291;-87
2022/10/24 03:06:40;;;;;;;2.15;1.73;;;21.40;73.00;;;;;;5003713;27;90854;-87
2022/10/24 03:09:06;;;;;;;2.45;1.67;;;21.40;73.00;;;;;;4995677;27;87277;-87
2022/10/24 03:11:31;;;;;;;2.67;1.95;;;21.40;72.90;;;;;;4998932;28;87476;-87
2022/10/24 03:13:57;;;;;;;2.15;1.80;;;21.40;73.00;;;;;;4997218;28;95229;-87
2022/10/24 03:16:23;;;;;;;2.72;2.42;;;21.40;72.80;;;;;;4997274;27;87765;-87
2022/10/24 03:18:49;;;;;;;2.45;1.85;;;21.40;72.80;;;;;;4997211;27;88586;-87
2022/10/24 03:21:15;;;;;;;2.42;1.83;;;21.40;72.80;;;;;;4997261;27;87461;-87
2022/10/24 03:23:40;;;;;;;2.25;2.00;;;21.40;73.10;;;;;;4998014;28;87545;-87
2022/10/24 03:26:06;;;;;;;2.85;1.65;;;21.40;73.10;;;;;;4995548;27;91630;-86
2022/10/24 03:28:31;;;;;;;2.35;1.80;;;21.40;73.10;;;;;;4997111;27;87435;-87
2022/10/24 03:30:57;;;;;;;2.08;1.63;;;21.40;73.20;;;;;;4996986;27;86908;-87
2022/10/24 03:33:22;;;;;;;2.10;1.70;;;21.40;73.20;;;;;;4997457;27;87499;-87
2022/10/24 03:35:52;;;;;;;3.17;1.80;;;21.40;73.10;;;;;;4998501;28;87307;-87
2022/10/24 03:38:19;;;;;;;3.08;1.83;;;21.40;73.20;;;;;;4996984;27;87394;-87
2022/10/24 03:40:45;;;;;;;2.53;1.70;;;21.40;73.10;;;;;;4996836;27;87329;-87
2022/10/24 03:43:10;;;;;;;2.25;1.77;;;21.40;73.50;;;;;;4996259;27;89858;-87
2022/10/24 03:45:36;;;;;;;1.90;1.75;;;21.40;73.20;;;;;;4996684;27;88949;-87
2022/10/24 03:48:03;;;;;;;2.05;1.75;;;21.40;73.20;;;;;;5028433;27;87318;-88
2022/10/24 03:50:29;;;;;;;3.08;1.83;;;21.40;73.10;;;;;;4997249;28;88917;-87
2022/10/24 03:52:55;;;;;;;1.98;1.80;;;21.40;73.10;;;;;;4997286;27;88309;-87
2022/10/24 03:55:20;;;;;;;3.15;1.55;;;21.30;73.00;;;;;;4996337;27;87728;-87
2022/10/24 03:57:46;;;;;;;2.78;2.00;;;21.40;73.10;;;;;;4996903;27;87251;-87
2022/10/24 04:00:12;;;;;;;2.70;1.83;;;21.30;73.10;;;;;;4996249;27;87790;-87
2022/10/24 04:02:38;;;;;;;2.58;1.58;;;21.40;73.10;;;;;;4997432;28;88655;-87
2022/10/24 04:05:04;;;;;;;1.75;1.65;;;21.30;73.00;;;;;;4996695;27;87937;-88
2022/10/24 04:07:30;;;;;;;3.05;2.05;;;21.30;73.10;;;;;;4995544;27;88408;-87
2022/10/24 04:09:56;;;;;;;2.40;1.85;;;21.30;73.20;;;;;;4996898;27;87545;-87
2022/10/24 04:12:22;;;;;;;2.63;1.92;;;21.40;73.30;;;;;;5027899;27;91628;-87
2022/10/24 04:14:48;;;;;;;2.20;1.83;;;21.40;73.30;;;;;;4997166;28;88206;-87
2022/10/24 04:17:13;;;;;;;2.15;1.55;;;21.30;73.20;;;;;;4995605;28;87527;-87
2022/10/24 04:19:39;;;;;;;1.60;1.50;;;21.30;73.30;;;;;;5028406;27;90634;-87
2022/10/24 04:22:05;;;;;;;2.42;1.70;;;21.30;73.30;;;;;;4996700;27;88996;-87
2022/10/24 04:24:30;;;;;;;3.10;1.80;;;21.40;73.20;;;;;;4994702;28;90960;-87
2022/10/24 04:26:56;;;;;;;2.45;1.70;;;21.40;73.30;;;;;;4997232;28;87581;-87
2022/10/24 04:29:21;;;;;;;2.35;1.55;;;21.30;73.20;;;;;;4995790;27;87962;-87
2022/10/24 04:31:47;;;;;;;2.20;1.80;;;21.30;73.20;;;;;;4995725;27;89485;-88
2022/10/24 04:34:13;;;;;;;2.15;1.80;;;21.40;73.20;;;;;;4996387;27;89132;-87
2022/10/24 04:36:38;;;;;;;2.05;1.85;;;21.30;73.00;;;;;;4996768;27;87311;-88
2022/10/24 04:39:05;;;;;;;2.92;1.92;;;21.40;73.10;;;;;;4996364;27;87818;-87
2022/10/24 04:41:30;;;;;;;1.88;1.75;;;21.40;73.00;;;;;;4995823;28;88854;-87
2022/10/24 04:43:56;;;;;;;2.45;1.80;;;21.30;73.90;;;;;;4995943;27;88292;-88
2022/10/24 04:46:21;;;;;;;1.88;1.20;;;21.30;73.10;;;;;;4995855;27;87605;-88
2022/10/24 04:48:47;;;;;;;1.52;1.42;;;21.30;73.00;;;;;;5010940;28;89603;-87
2022/10/24 04:51:13;;;;;;;3.13;1.20;;;21.30;72.90;;;;;;4995817;27;88594;-87
2022/10/24 04:53:38;;;;;;;2.83;1.80;;;21.40;72.70;;;;;;4996542;28;87797;-88
2022/10/24 04:56:04;;;;;;;5.20;1.73;;;21.40;70.20;;;;;;4995294;27;87880;-87
2022/10/24 04:58:30;;;;;;;3.25;1.65;;;21.30;69.90;;;;;;4995430;27;88008;-88
2022/10/24 05:00:56;;;;;;;4.38;1.65;;;21.40;70.40;;;;;;4995354;27;88474;-88
2022/10/24 05:03:22;;;;;;;4.40;2.08;;;21.40;70.30;;;;;;4995613;27;87807;-88
2022/10/24 05:05:47;;;;;;;4.80;1.77;;;21.40;69.90;;;;;;4996573;28;86898;-87
2022/10/24 05:08:14;;;;;;;4.03;2.08;;;21.40;70.20;;;;;;4995354;27;87378;-88
2022/10/24 05:10:39;;;;;;;5.65;2.03;;;21.40;70.30;;;;;;4994600;27;87293;-88
2022/10/24 05:13:05;;;;;;;4.20;1.85;;;21.40;70.40;;;;;;5027896;27;91168;-88
2022/10/24 05:15:31;;;;;;;3.13;1.80;;;21.40;70.40;;;;;;4995463;27;87120;-88
2022/10/24 05:17:57;;;;;;;3.25;2.17;;;21.30;70.20;;;;;;4995875;28;87103;-88
2022/10/24 05:20:23;;;;;;;2.53;1.88;;;21.30;70.20;;;;;;4994387;28;93300;-87
2022/10/24 05:22:49;;;;;;;4.80;1.77;;;21.40;70.30;;;;;;4995623;27;89148;-86
2022/10/24 05:25:15;;;;;;;6.07;1.70;;;21.50;70.80;;;;;;4998288;27;87493;-87
2022/10/24 05:27:40;;;;;;;4.03;1.90;;;21.50;70.90;;;;;;4995551;27;87425;-87
2022/10/24 05:30:07;;;;;;;11.13;3.08;;;21.60;70.10;;;;;;4993536;27;91554;-87
2022/10/24 05:32:32;;;;;;;20.95;5.80;;;21.60;69.40;;;;;;4994752;28;92429;-84
2022/10/24 05:34:58;;;;;;;42.05;11.18;;;21.60;69.40;;;;;;4994984;27;87337;-85
2022/10/24 05:37:23;;;;;;;36.28;8.32;;;21.60;69.80;;;;;;4994960;27;87017;-87
2022/10/24 05:39:49;;;;;;;36.75;9.23;;;21.60;69.90;;;;;;5000525;27;88588;-85
2022/10/24 05:42:15;;;;;;;42.42;10.45;;;21.50;69.90;;;;;;4994911;27;88236;-88
2022/10/24 05:44:41;;;;;;;35.53;8.88;;;21.50;70.90;;;;;;4995251;28;88055;-88
2022/10/24 05:47:07;;;;;;;26.15;7.95;;;21.50;71.00;;;;;;4994901;27;87218;-87
2022/10/24 05:49:33;;;;;;;26.10;7.38;;;21.40;71.90;;;;;;4997106;27;88607;-88
2022/10/24 05:51:58;;;;;;;16.88;5.30;;;21.40;71.00;;;;;;4994418;27;88241;-90
2022/10/24 05:54:24;;;;;;;17.88;4.78;;;21.40;70.00;;;;;;4995192;27;86939;-89
2022/10/24 05:56:49;;;;;;;27.30;5.82;;;21.40;68.80;;;;;;4995490;28;87706;-89
2022/10/24 05:59:15;;;;;;;14.18;5.03;;;21.40;69.40;;;;;;4996486;27;89129;-88
2022/10/24 06:01:41;;;;;;;14.35;4.47;;;21.40;67.70;;;;;;4998069;27;87799;-88
2022/10/24 06:04:07;;;;;;;13.85;4.30;;;21.40;66.40;;;;;;4995391;27;86859;-89
2022/10/24 06:06:36;;;;;;;18.92;4.60;;;21.40;65.20;;;;;;4996241;27;87910;-87
2022/10/24 06:09:03;;;;;;;;;;;21.40;66.50;;;;;;4992074;27;89570;-89
2022/10/24 06:11:28;;;;;;;14.20;4.43;;;21.40;66.60;;;;;;4995002;28;90586;-88
2022/10/24 06:13:54;;;;;;;16.63;4.22;;;21.40;67.30;;;;;;4993582;28;86869;-88
2022/10/24 06:16:20;;;;;;;19.17;5.55;;;21.40;67.50;;;;;;4988930;27;87518;-89
2022/10/24 06:18:45;;;;;;;34.03;7.18;;;21.40;67.70;;;;;;4994634;27;88469;-88
2022/10/24 06:21:12;;;;;;;15.98;4.97;;;21.40;67.20;;;;;;4994620;27;87870;-87
2022/10/24 06:23:38;;;;;;;19.60;5.63;;;21.30;68.60;;;;;;4997237;28;87314;-88
2022/10/24 06:26:09;;;;;;;21.75;5.93;;;21.30;68.80;;;;;;4998489;27;87649;-86
2022/10/24 06:28:35;;;;;;;25.92;5.97;;;21.30;68.90;;;;;;4997970;27;87832;-87
2022/10/24 06:31:02;;;;;;;32.35;7.32;;;21.30;68.70;;;;;;5030121;27;91152;-88
2022/10/24 06:33:28;;;;;;;30.40;7.32;;;21.40;67.80;;;;;;4996779;27;88072;-87
2022/10/24 06:35:56;;;;;;;26.23;6.63;;;21.40;68.50;;;;;;4999285;28;87344;-86
2022/10/24 06:38:22;;;;;;;25.08;6.55;;;21.40;69.30;;;;;;4997898;27;89075;-85
2022/10/24 06:40:47;;;;;;;27.75;6.88;;;21.40;68.10;;;;;;4997762;27;88145;-86
2022/10/24 06:43:13;;;;;;;22.70;6.32;;;21.30;68.30;;;;;;4998040;27;86883;-85
2022/10/24 06:45:39;;;;;;;24.70;6.80;;;21.30;69.50;;;;;;4987914;27;91060;-87
2022/10/24 06:48:05;;;;;;;27.05;7.43;;;21.40;68.40;;;;;;4997969;27;88666;-86
2022/10/24 06:50:31;;;;;;;28.52;6.70;;;21.30;67.50;;;;;;4999209;28;88385;-86
2022/10/24 06:52:56;;;;;;;26.80;6.78;;;21.30;69.20;;;;;;4995770;27;87156;-87
2022/10/24 06:55:22;;;;;;;21.40;6.40;;;21.20;69.60;;;;;;4998212;27;87062;-87
2022/10/24 06:57:47;;;;;;;22.67;7.32;;;21.30;69.80;;;;;;4997040;27;88900;-87
2022/10/24 07:00:13;;;;;;;23.77;8.55;;;21.30;70.20;;;;;;4998072;27;89488;-86
2022/10/24 07:02:39;;;;;;;29.70;9.55;;;21.30;71.00;;;;;;4998029;28;87309;-85
2022/10/24 07:05:08;;;;;;;30.35;9.80;;;21.30;71.30;;;;;;4998251;27;87404;-86
2022/10/24 07:07:33;;;;;;;23.07;9.17;;;21.30;70.90;;;;;;5012206;27;91808;-86
2022/10/24 07:09:59;;;;;;;30.13;9.63;;;21.40;71.70;;;;;;4997621;27;88335;-87
2022/10/24 07:12:25;;;;;;;24.98;10.27;;;21.30;72.00;;;;;;5029533;27;87028;-87
2022/10/24 07:14:51;;;;;;;29.05;10.27;;;21.30;72.70;;;;;;4997505;28;88038;-86
2022/10/24 07:17:17;;;;;;;31.65;12.43;;;21.30;72.90;;;;;;4995773;27;88289;-88
2022/10/24 07:19:43;;;;;;;25.85;11.25;;;21.30;73.90;;;;;;4996931;27;88413;-87
2022/10/24 07:22:09;;;;;;;26.80;12.25;;;21.40;73.50;;;;;;5018979;27;88354;-87
2022/10/24 07:24:35;;;;;;;36.25;13.18;;;21.40;73.50;;;;;;4996308;27;87420;-87
2022/10/24 07:27:01;;;;;;;31.02;14.15;;;21.30;74.70;;;;;;4996315;27;87014;-86
2022/10/24 07:29:27;;;;;;;28.85;14.15;;;21.30;75.40;;;;;;4996786;28;87925;-87
2022/10/24 07:31:53;;;;;;;29.25;15.95;;;21.30;75.60;;;;;;4996734;28;95459;-87
2022/10/24 07:34:19;;;;;;;37.58;17.17;;;21.30;76.10;;;;;;5027338;27;91365;-87
2022/10/24 07:36:44;;;;;;;44.28;19.20;;;21.30;76.60;;;;;;5028100;27;90738;-87
2022/10/24 07:39:11;;;;;;;30.17;16.10;;;21.30;77.20;;;;;;5028282;27;91394;-86
2022/10/24 07:41:40;;;;;;;40.72;16.92;;;21.30;77.30;;;;;;4996802;28;87637;-87
2022/10/24 07:44:06;;;;;;;32.83;15.90;;;21.20;78.00;;;;;;4996459;27;87545;-87
2022/10/24 07:46:32;;;;;;;30.60;13.85;;;21.30;77.50;;;;;;4995902;27;89497;-86
2022/10/24 07:48:57;;;;;;;27.25;13.57;;;21.30;77.20;;;;;;4996137;27;89907;-87
2022/10/24 07:51:26;;;;;;;34.03;13.88;;;21.30;76.60;;;;;;5028547;27;87056;-87
2022/10/24 07:53:52;;;;;;;29.77;12.65;;;21.30;76.60;;;;;;4995383;28;89836;-87
2022/10/24 07:56:18;;;;;;;27.50;12.45;;;21.40;76.30;;;;;;4996286;27;88542;-87
2022/10/24 07:58:45;;;;;;;33.03;11.90;;;21.40;76.60;;;;;;4996269;27;87605;-87
2022/10/24 08:01:15;;;;;;;26.00;11.00;;;21.40;77.00;;;;;;4994591;27;87124;-87
2022/10/24 08:03:41;;;;;;;23.40;10.82;;;21.40;77.20;;;;;;4996243;27;87841;-86
2022/10/24 08:06:10;;;;;;;24.42;11.35;;;21.40;77.30;;;;;;4984221;27;90147;-87
2022/10/24 08:08:36;;;;;;;25.77;10.52;;;21.40;77.50;;;;;;4996936;28;88741;-87
2022/10/24 08:11:10;;;;;;;25.92;10.35;;;21.40;78.40;;;;;;5026893;27;88396;-87
2022/10/24 08:13:36;;;;;;;24.45;10.30;;;21.40;78.60;;;;;;4996818;27;87234;-86
2022/10/24 08:16:05;;;;;;;22.80;9.63;;;21.40;77.90;;;;;;4996028;27;87370;-87
2022/10/24 08:18:30;;;;;;;22.53;10.63;;;21.40;76.80;;;;;;4995279;27;88344;-86
2022/10/24 08:20:58;;;;;;;23.90;10.18;;;21.40;78.60;;;;;;5028432;28;87059;-87
2022/10/24 08:23:23;;;;;;;20.13;8.65;;;21.40;78.80;;;;;;4995738;28;91365;-87
2022/10/24 08:25:49;;;;;;;25.38;10.15;;;21.40;78.70;;;;;;4996428;27;88441;-87
2022/10/24 08:28:15;;;;;;;22.25;9.75;;;21.40;78.90;;;;;;4995718;27;87362;-87
2022/10/24 08:30:40;;;;;;;27.70;10.43;;;21.40;78.70;;;;;;4996391;27;87280;-87
2022/10/24 08:33:06;;;;;;;19.30;9.88;;;21.40;79.30;;;;;;4995446;27;87350;-88
2022/10/24 08:35:31;;;;;;;27.95;11.45;;;21.50;79.80;;;;;;4995435;28;89798;-87
2022/10/24 08:37:57;;;;;;;28.65;14.23;;;21.40;80.00;;;;;;4994274;27;89461;-87
2022/10/24 08:40:28;;;;;;;31.13;15.15;;;21.50;80.80;;;;;;4995998;27;87372;-87
2022/10/24 08:42:54;;;;;;;29.63;13.35;;;21.50;81.30;;;;;;4995715;27;87293;-89
2022/10/24 08:45:41;;;;;;;24.33;11.15;;;21.50;81.50;;;;;;4994903;27;88872;-88
2022/10/24 08:48:27;;;;;;;26.63;12.15;;;21.60;77.20;;;;;;4995204;27;88213;-88
2022/10/24 08:50:58;;;;;;;27.75;12.13;;;21.50;80.30;;;;;;4996364;28;86893;-87
2022/10/24 08:53:28;;;;;;;23.77;10.63;;;21.50;81.00;;;;;;4994887;28;91832;-87
2022/10/24 08:55:59;;;;;;;21.55;10.48;;;21.50;80.40;;;;;;5000786;27;89420;-88
2022/10/24 08:58:35;;;;;;;19.95;10.13;;;21.60;80.80;;;;;;4993493;27;89056;-87
2022/10/24 09:01:07;;;;;;;26.15;11.10;;;21.50;80.80;;;;;;4993783;27;88409;-87
2022/10/24 09:03:41;;;;;;;20.63;10.27;;;21.60;81.60;;;;;;4992164;27;92020;-88
2022/10/24 09:06:15;;;;;;;24.45;10.98;;;21.60;81.50;;;;;;4995560;27;88608;-89
2022/10/24 09:09:04;;;;;;;24.25;10.00;;;21.60;81.90;;;;;;4996197;28;87758;-87
2022/10/24 09:11:48;;;;;;;17.65;7.78;;;21.60;81.70;;;;;;4994715;28;87128;-88
2022/10/24 09:14:17;;;;;;;21.27;7.50;;;21.80;76.80;;;;;;4994810;27;87294;-87
2022/10/24 09:16:47;;;;;;;17.55;7.85;;;21.80;74.70;;;;;;4995175;27;88590;-87
2022/10/24 09:19:17;;;;;;;18.83;8.10;;;21.80;77.60;;;;;;5072823;27;89019;-86
2022/10/24 09:21:44;;;;;;;18.13;7.57;;;21.80;77.30;;;;;;5057318;27;87141;-87
2022/10/24 09:24:35;;;;;;;16.77;6.78;;;21.90;76.40;;;;;;5073223;27;87350;-87
2022/10/24 09:27:03;;;;;;;22.65;8.15;;;21.80;75.00;;;;;;5072410;27;89482;-87
2022/10/24 09:29:31;;;;;;;18.15;7.38;;;21.80;76.60;;;;;;5074805;27;89302;-86
2022/10/24 09:31:57;;;;;;;20.73;7.60;;;21.70;76.80;;;;;;5073895;27;87067;-88
2022/10/24 09:34:23;;;;;;;19.05;7.80;;;21.70;76.80;;;;;;5056547;27;90264;-89
2022/10/24 09:36:49;;;;;;;20.60;7.30;;;21.70;77.10;;;;;;5073522;27;88635;-89
2022/10/24 09:39:23;;;;;;;19.65;6.63;;;21.70;77.10;;;;;;5073401;27;88708;-88
2022/10/24 09:41:48;;;;;;;16.67;7.25;;;21.60;76.90;;;;;;5073543;27;87783;-88
2022/10/24 09:44:37;;;;;;;17.83;6.57;;;21.60;76.70;;;;;;5074108;27;86530;-86
2022/10/24 09:47:05;;;;;;;15.15;5.95;;;21.60;76.90;;;;;;5073425;27;89274;-87
2022/10/24 09:49:37;;;;;;;17.67;7.15;;;21.60;76.00;;;;;;5072953;27;88379;-87
2022/10/24 09:52:17;;;;;;;21.42;7.18;;;21.60;76.30;;;;;;5072750;27;87987;-87
2022/10/24 09:54:44;;;;;;;17.02;6.38;;;21.60;76.40;;;;;;5073256;27;90519;-86
2022/10/24 09:57:09;;;;;;;15.65;5.50;;;21.60;76.00;;;;;;5020459;27;88585;-87
2022/10/24 09:59:43;;;;;;;13.77;5.78;;;21.60;76.30;;;;;;4999852;28;88253;-88
2022/10/24 10:02:28;;;;;;;17.23;6.35;;;21.60;76.70;;;;;;4999273;27;87105;-86
2022/10/24 10:05:03;;;;;;;17.25;5.88;;;21.60;76.80;;;;;;4999077;27;87253;-88
2022/10/24 10:07:33;;;;;;;14.82;5.63;;;21.60;76.50;;;;;;4997821;27;88593;-88
2022/10/24 10:10:22;;;;;;;13.60;5.40;;;21.60;76.40;;;;;;4997547;27;88085;-88
2022/10/24 10:12:55;;;;;;;;;;;21.70;74.30;;;;;;4998299;27;88299;-87
2022/10/24 10:15:31;;;;;;;17.40;5.22;;;21.70;75.00;;;;;;4999331;27;87493;-89
2022/10/24 10:18:00;;;;;;;18.48;5.47;;;21.80;74.70;;;;;;4998761;28;89388;-89
2022/10/24 10:20:44;;;;;;;14.55;5.22;;;21.80;74.60;;;;;;4996400;28;94933;-87
2022/10/24 10:23:24;;;;;;;16.35;5.43;;;21.80;75.30;;;;;;4997904;27;88319;-88
2022/10/24 10:26:35;;;;;;;15.85;5.13;;;21.80;75.40;;;;;;4998559;27;87400;-88
2022/10/24 10:29:03;;;;;;;12.30;4.95;;;21.70;75.30;;;;;;4967982;28;88323;-88
2022/10/24 10:31:44;;;;;;;14.30;5.10;;;21.70;75.40;;;;;;4965546;28;88436;-88
2022/10/24 10:34:41;;;;;;;10.32;4.85;;;21.60;75.40;;;;;;4965034;28;87377;-87
2022/10/24 10:37:22;;;;;;;10.18;4.75;;;21.60;75.30;;;;;;4966833;28;87676;-88
2022/10/24 10:40:27;;;;;;;13.25;5.07;;;21.60;75.20;;;;;;4966969;28;88156;-89
2022/10/24 10:43:20;;;;;;;13.93;5.07;;;21.60;75.30;;;;;;4916571;28;87525;-88
2022/10/24 10:46:03;;;;;;;10.88;4.20;;;21.60;75.20;;;;;;4916332;28;88251;-88
2022/10/24 10:48:44;;;;;;;11.75;5.10;;;21.60;75.30;;;;;;4916630;28;87408;-87
2022/10/24 10:51:15;;;;;;;16.65;5.63;;;21.60;75.20;;;;;;4915780;28;88815;-88
2022/10/24 10:53:48;;;;;;;13.63;5.15;;;21.60;75.20;;;;;;4917447;28;88255;-88
2022/10/24 10:56:54;;;;;;;16.73;5.22;;;21.60;75.10;;;;;;4916833;28;87764;-88
2022/10/24 10:59:47;;;;;;;13.48;5.38;;;21.60;74.90;;;;;;4916377;28;87330;-88
2022/10/24 11:02:38;;;;;;;16.15;5.10;;;21.60;74.90;;;;;;4919147;28;88449;-87
2022/10/24 11:05:15;;;;;;;12.88;5.07;;;21.60;75.00;;;;;;4936399;28;86683;-88
2022/10/24 11:07:41;;;;;;;15.38;5.43;;;21.60;74.80;;;;;;4936305;28;87476;-88
2022/10/24 11:10:11;;;;;;;20.50;6.15;;;21.60;74.70;;;;;;4935700;28;88358;-88
2022/10/24 11:12:42;;;;;;;16.23;5.35;;;21.60;74.70;;;;;;4935201;28;89558;-88
2022/10/24 11:15:18;;;;;;;14.38;5.15;;;21.60;74.70;;;;;;4934606;28;88207;-88
2022/10/24 11:18:21;;;;;;;20.95;7.13;;;21.60;74.70;;;;;;4953004;28;87096;-88
2022/10/24 11:20:54;;;;;;;12.43;5.30;;;21.60;74.60;;;;;;4937429;28;92165;-88
2022/10/24 11:23:31;;;;;;;18.10;5.65;;;21.60;74.70;;;;;;4945835;28;88124;-88
2022/10/24 11:26:08;;;;;;;15.82;5.57;;;21.60;74.70;;;;;;4944202;28;87814;-88
2022/10/24 11:29:09;;;;;;;14.95;5.25;;;21.60;74.80;;;;;;4946555;28;87439;-88
2022/10/24 11:31:48;;;;;;;22.55;6.47;;;21.60;74.50;;;;;;4964161;28;87146;-88
2022/10/24 11:34:34;;;;;;;18.65;5.88;;;21.60;74.30;;;;;;4965573;28;87523;-88
2022/10/24 11:37:06;;;;;;;21.55;6.93;;;21.60;74.10;;;;;;4964998;28;87911;-88
2022/10/24 11:39:44;;;;;;;15.10;6.00;;;21.60;74.30;;;;;;4963809;28;88501;-87
2022/10/24 11:42:25;;;;;;;16.50;5.75;;;21.70;74.30;;;;;;4964603;28;87447;-88
2022/10/24 11:45:02;;;;;;;16.55;5.78;;;21.70;74.30;;;;;;4966462;28;87923;-88
2022/10/24 11:47:27;;;;;;;13.55;5.05;;;21.60;74.20;;;;;;4965405;28;91245;-86
2022/10/24 11:50:02;;;;;;;16.13;5.75;;;21.70;72.60;;;;;;4949436;28;87114;-87
2022/10/24 11:52:31;;;;;;;18.45;5.47;;;21.80;71.00;;;;;;4965391;28;87626;-88
2022/10/24 11:55:10;;;;;;;17.17;5.35;;;21.70;70.90;;;;;;4963759;28;88184;-89
2022/10/24 11:57:37;;;;;;;13.57;5.40;;;21.70;70.10;;;;;;4965822;28;88441;-88
2022/10/24 12:00:03;;;;;;;16.65;5.22;;;21.80;71.10;;;;;;4965816;28;87403;-88
2022/10/24 12:02:41;;;;;;;16.08;5.32;;;21.80;71.50;;;;;;4965072;28;88539;-88
2022/10/24 12:05:41;;;;;;;20.25;5.63;;;21.70;72.30;;;;;;4965319;28;89481;-88
2022/10/24 12:08:33;;;;;;;16.70;5.70;;;21.60;72.80;;;;;;4936218;28;91920;-88
2022/10/24 12:11:05;;;;;;;17.83;5.15;;;21.70;72.60;;;;;;4946576;28;87001;-88
2022/10/24 12:13:42;;;;;;;15.65;5.53;;;21.70;72.70;;;;;;4944934;28;87666;-88
2022/10/24 12:16:39;;;;;;;14.65;5.07;;;21.70;72.80;;;;;;4944589;28;88882;-88
2022/10/24 12:19:12;;;;;;;13.75;4.43;;;21.60;73.00;;;;;;4937632;28;91707;-89
2022/10/24 12:21:43;;;;;;;13.00;5.57;;;21.80;72.40;;;;;;4954343;28;88757;-89
2022/10/24 12:24:31;;;;;;;12.35;4.75;;;21.80;72.40;;;;;;4955010;28;87226;-88
2022/10/24 12:27:01;;;;;;;15.07;5.07;;;21.90;72.70;;;;;;4929776;28;92206;-89
2022/10/24 12:29:30;;;;;;;11.98;4.05;;;21.90;71.30;;;;;;4954355;28;92619;-88
2022/10/24 12:31:57;;;;;;;12.00;4.13;;;21.90;71.10;;;;;;4954047;28;88536;-87
2022/10/24 12:34:23;;;;;;;14.75;4.72;;;21.90;70.60;;;;;;4953998;28;87894;-87
2022/10/24 12:37:08;;;;;;;13.32;4.35;;;21.90;71.00;;;;;;4954040;28;88385;-87
2022/10/24 12:39:38;;;;;;;54.55;19.05;;;21.90;70.90;;;;;;4954333;28;87451;-86
2022/10/24 12:42:11;;;;;;;21.95;9.27;;;22.00;70.30;;;;;;4953528;28;86958;-87
2022/10/24 12:44:39;;;;;;;37.13;17.67;;;21.90;70.10;;;;;;4955143;28;87510;-86
2022/10/24 12:47:42;;;;;;;46.97;20.83;;;21.80;70.40;;;;;;4952762;28;91696;-86
2022/10/24 12:50:22;;;;;;;51.22;21.25;;;21.90;70.00;;;;;;4953664;28;86850;-86
2022/10/24 12:52:50;;;;;;;64.53;26.35;;;21.80;70.80;;;;;;4953199;28;87012;-86
2022/10/24 12:55:34;;;;;;;57.20;25.77;;;21.80;70.80;;;;;;4969706;28;87545;-86
2022/10/24 12:58:00;;;;;;;56.35;25.30;;;21.80;71.00;;;;;;4994026;27;89524;-86
2022/10/24 13:00:30;;;;;;;59.30;26.65;;;21.70;71.00;;;;;;4994889;27;89917;-86